sensor_id;sensor_type;location;lat;lon;timestamp;P1;durP1;ratioP1;P2;durP2;ratioP2
5953;SDS011;3002;42.642;24.812;2023-05-14T00:00:42;6.50;;;2.43;;
5953;SDS011;3002;42.642;24.812;2023-05-14T00:03:08;6.63;;;2.10;;
5953;SDS011;3002;42.642;24.812;2023-05-14T00:05:33;6.30;;;1.90;;
5953;SDS011;3002;42.642;24.812;2023-05-14T00:07:59;8.20;;;2.17;;
5953;SDS011;3002;42.642;24.812;2023-05-14T00:10:25;7.20;;;2.20;;
5953;SDS011;3002;42.642;24.812;2023-05-14T00:12:51;7.47;;;2.27;;
5953;SDS011;3002;42.642;24.812;2023-05-14T00:15:16;9.77;;;2.70;;
5953;SDS011;3002;42.642;24.812;2023-05-14T00:17:42;9.13;;;2.63;;
5953;SDS011;3002;42.642;24.812;2023-05-14T00:20:07;9.27;;;3.23;;
5953;SDS011;3002;42.642;24.812;2023-05-14T00:22:36;6.57;;;2.10;;
5953;SDS011;3002;42.642;24.812;2023-05-14T00:25:01;9.00;;;2.30;;
5953;SDS011;3002;42.642;24.812;2023-05-14T00:27:27;7.47;;;2.37;;
5953;SDS011;3002;42.642;24.812;2023-05-14T00:29:52;8.50;;;1.83;;
5953;SDS011;3002;42.642;24.812;2023-05-14T00:32:18;5.17;;;1.43;;
5953;SDS011;3002;42.642;24.812;2023-05-14T00:34:43;8.30;;;2.60;;
5953;SDS011;3002;42.642;24.812;2023-05-14T00:37:09;6.80;;;1.97;;
5953;SDS011;3002;42.642;24.812;2023-05-14T00:39:34;6.03;;;1.97;;
5953;SDS011;3002;42.642;24.812;2023-05-14T00:42:00;10.67;;;2.50;;
5953;SDS011;3002;42.642;24.812;2023-05-14T00:44:25;6.90;;;2.23;;
5953;SDS011;3002;42.642;24.812;2023-05-14T00:46:51;6.67;;;2.13;;
5953;SDS011;3002;42.642;24.812;2023-05-14T00:49:17;8.20;;;2.67;;
5953;SDS011;3002;42.642;24.812;2023-05-14T00:51:42;7.70;;;2.80;;
5953;SDS011;3002;42.642;24.812;2023-05-14T00:54:12;8.80;;;2.80;;
5953;SDS011;3002;42.642;24.812;2023-05-14T00:56:38;6.67;;;1.97;;
5953;SDS011;3002;42.642;24.812;2023-05-14T00:59:04;8.03;;;2.60;;
5953;SDS011;3002;42.642;24.812;2023-05-14T01:01:30;7.17;;;2.20;;
5953;SDS011;3002;42.642;24.812;2023-05-14T01:03:55;5.53;;;1.67;;
5953;SDS011;3002;42.642;24.812;2023-05-14T01:06:27;8.27;;;2.20;;
5953;SDS011;3002;42.642;24.812;2023-05-14T01:09:16;5.93;;;1.97;;
5953;SDS011;3002;42.642;24.812;2023-05-14T01:14:58;7.80;;;2.40;;
5953;SDS011;3002;42.642;24.812;2023-05-14T01:17:31;7.47;;;2.10;;
5953;SDS011;3002;42.642;24.812;2023-05-14T01:19:57;6.37;;;2.07;;
5953;SDS011;3002;42.642;24.812;2023-05-14T01:22:24;7.80;;;2.50;;
5953;SDS011;3002;42.642;24.812;2023-05-14T01:24:50;7.50;;;2.27;;
5953;SDS011;3002;42.642;24.812;2023-05-14T01:27:27;8.07;;;2.13;;
5953;SDS011;3002;42.642;24.812;2023-05-14T01:32:47;8.30;;;2.40;;
5953;SDS011;3002;42.642;24.812;2023-05-14T01:35:17;9.90;;;2.60;;
5953;SDS011;3002;42.642;24.812;2023-05-14T01:37:46;7.33;;;2.10;;
5953;SDS011;3002;42.642;24.812;2023-05-14T01:40:13;8.13;;;2.00;;
5953;SDS011;3002;42.642;24.812;2023-05-14T01:42:39;9.10;;;1.90;;
5953;SDS011;3002;42.642;24.812;2023-05-14T01:45:05;9.23;;;2.50;;
5953;SDS011;3002;42.642;24.812;2023-05-14T01:47:31;6.33;;;1.93;;
5953;SDS011;3002;42.642;24.812;2023-05-14T01:49:57;12.73;;;2.87;;
5953;SDS011;3002;42.642;24.812;2023-05-14T01:52:22;7.37;;;2.90;;
5953;SDS011;3002;42.642;24.812;2023-05-14T01:54:48;7.90;;;2.17;;
5953;SDS011;3002;42.642;24.812;2023-05-14T01:57:13;8.53;;;2.83;;
5953;SDS011;3002;42.642;24.812;2023-05-14T01:59:39;8.20;;;2.00;;
5953;SDS011;3002;42.642;24.812;2023-05-14T02:02:04;7.13;;;2.23;;
5953;SDS011;3002;42.642;24.812;2023-05-14T02:04:30;9.40;;;2.80;;
5953;SDS011;3002;42.642;24.812;2023-05-14T02:06:55;5.87;;;1.90;;
5953;SDS011;3002;42.642;24.812;2023-05-14T02:09:21;6.13;;;2.07;;
5953;SDS011;3002;42.642;24.812;2023-05-14T02:11:46;5.93;;;2.00;;
5953;SDS011;3002;42.642;24.812;2023-05-14T02:14:12;7.53;;;2.03;;
5953;SDS011;3002;42.642;24.812;2023-05-14T02:16:39;5.27;;;1.70;;
5953;SDS011;3002;42.642;24.812;2023-05-14T02:19:04;10.80;;;3.50;;
5953;SDS011;3002;42.642;24.812;2023-05-14T02:21:30;7.87;;;2.60;;
5953;SDS011;3002;42.642;24.812;2023-05-14T02:23:58;5.50;;;2.00;;
5953;SDS011;3002;42.642;24.812;2023-05-14T02:26:24;5.37;;;1.73;;
5953;SDS011;3002;42.642;24.812;2023-05-14T02:28:49;7.13;;;2.10;;
5953;SDS011;3002;42.642;24.812;2023-05-14T02:31:18;6.27;;;2.40;;
5953;SDS011;3002;42.642;24.812;2023-05-14T02:34:00;7.80;;;2.60;;
5953;SDS011;3002;42.642;24.812;2023-05-14T02:36:26;5.70;;;2.00;;
5953;SDS011;3002;42.642;24.812;2023-05-14T02:38:51;6.47;;;2.00;;
5953;SDS011;3002;42.642;24.812;2023-05-14T02:41:17;6.47;;;2.07;;
5953;SDS011;3002;42.642;24.812;2023-05-14T02:43:42;5.73;;;2.00;;
5953;SDS011;3002;42.642;24.812;2023-05-14T02:46:07;11.60;;;3.00;;
5953;SDS011;3002;42.642;24.812;2023-05-14T02:48:33;7.00;;;2.63;;
5953;SDS011;3002;42.642;24.812;2023-05-14T02:50:59;7.53;;;2.33;;
5953;SDS011;3002;42.642;24.812;2023-05-14T02:53:24;6.07;;;1.97;;
5953;SDS011;3002;42.642;24.812;2023-05-14T02:55:50;8.37;;;2.47;;
5953;SDS011;3002;42.642;24.812;2023-05-14T02:58:15;7.10;;;2.20;;
5953;SDS011;3002;42.642;24.812;2023-05-14T03:00:41;8.27;;;2.73;;
5953;SDS011;3002;42.642;24.812;2023-05-14T03:03:06;7.13;;;2.40;;
5953;SDS011;3002;42.642;24.812;2023-05-14T03:05:32;5.67;;;2.23;;
5953;SDS011;3002;42.642;24.812;2023-05-14T03:07:57;8.43;;;2.97;;
5953;SDS011;3002;42.642;24.812;2023-05-14T03:10:23;17.30;;;2.27;;
5953;SDS011;3002;42.642;24.812;2023-05-14T03:12:48;8.17;;;2.33;;
5953;SDS011;3002;42.642;24.812;2023-05-14T03:15:13;11.77;;;2.63;;
5953;SDS011;3002;42.642;24.812;2023-05-14T03:17:39;8.93;;;2.63;;
5953;SDS011;3002;42.642;24.812;2023-05-14T03:20:05;10.97;;;2.73;;
5953;SDS011;3002;42.642;24.812;2023-05-14T03:22:30;10.00;;;2.90;;
5953;SDS011;3002;42.642;24.812;2023-05-14T03:24:56;8.03;;;2.30;;
5953;SDS011;3002;42.642;24.812;2023-05-14T03:27:22;8.93;;;2.10;;
5953;SDS011;3002;42.642;24.812;2023-05-14T03:29:47;5.83;;;1.87;;
5953;SDS011;3002;42.642;24.812;2023-05-14T03:32:13;7.60;;;2.10;;
5953;SDS011;3002;42.642;24.812;2023-05-14T03:34:38;8.33;;;2.43;;
5953;SDS011;3002;42.642;24.812;2023-05-14T03:37:06;8.63;;;3.23;;
5953;SDS011;3002;42.642;24.812;2023-05-14T03:39:31;7.00;;;2.23;;
5953;SDS011;3002;42.642;24.812;2023-05-14T03:41:57;6.37;;;2.40;;
5953;SDS011;3002;42.642;24.812;2023-05-14T03:44:23;9.70;;;3.13;;
5953;SDS011;3002;42.642;24.812;2023-05-14T03:46:49;9.07;;;3.07;;
5953;SDS011;3002;42.642;24.812;2023-05-14T03:49:14;10.60;;;3.40;;
5953;SDS011;3002;42.642;24.812;2023-05-14T03:51:40;8.90;;;2.97;;
5953;SDS011;3002;42.642;24.812;2023-05-14T03:54:05;12.60;;;2.77;;
5953;SDS011;3002;42.642;24.812;2023-05-14T03:56:31;7.53;;;2.30;;
5953;SDS011;3002;42.642;24.812;2023-05-14T03:58:57;9.57;;;4.27;;
5953;SDS011;3002;42.642;24.812;2023-05-14T04:01:22;11.10;;;4.10;;
5953;SDS011;3002;42.642;24.812;2023-05-14T04:03:47;7.70;;;2.70;;
5953;SDS011;3002;42.642;24.812;2023-05-14T04:06:13;12.03;;;3.77;;
5953;SDS011;3002;42.642;24.812;2023-05-14T04:08:44;9.53;;;4.03;;
5953;SDS011;3002;42.642;24.812;2023-05-14T04:11:09;10.50;;;3.33;;
5953;SDS011;3002;42.642;24.812;2023-05-14T04:13:35;9.90;;;2.97;;
5953;SDS011;3002;42.642;24.812;2023-05-14T04:16:00;13.00;;;4.00;;
5953;SDS011;3002;42.642;24.812;2023-05-14T04:18:26;11.00;;;3.20;;
5953;SDS011;3002;42.642;24.812;2023-05-14T04:20:51;9.27;;;3.17;;
5953;SDS011;3002;42.642;24.812;2023-05-14T04:23:17;12.87;;;4.60;;
5953;SDS011;3002;42.642;24.812;2023-05-14T04:25:42;6.90;;;2.70;;
5953;SDS011;3002;42.642;24.812;2023-05-14T04:28:08;18.73;;;4.40;;
5953;SDS011;3002;42.642;24.812;2023-05-14T04:30:33;9.63;;;3.33;;
5953;SDS011;3002;42.642;24.812;2023-05-14T04:32:58;13.00;;;3.30;;
5953;SDS011;3002;42.642;24.812;2023-05-14T04:35:24;15.93;;;4.83;;
5953;SDS011;3002;42.642;24.812;2023-05-14T04:37:49;9.73;;;2.80;;
5953;SDS011;3002;42.642;24.812;2023-05-14T04:40:15;6.90;;;2.30;;
5953;SDS011;3002;42.642;24.812;2023-05-14T04:42:41;14.83;;;4.47;;
5953;SDS011;3002;42.642;24.812;2023-05-14T04:45:08;8.40;;;3.17;;
5953;SDS011;3002;42.642;24.812;2023-05-14T04:47:33;10.20;;;3.17;;
5953;SDS011;3002;42.642;24.812;2023-05-14T04:49:59;11.27;;;3.73;;
5953;SDS011;3002;42.642;24.812;2023-05-14T04:52:25;9.30;;;3.87;;
5953;SDS011;3002;42.642;24.812;2023-05-14T04:54:51;10.07;;;3.67;;
5953;SDS011;3002;42.642;24.812;2023-05-14T04:57:16;9.57;;;3.47;;
5953;SDS011;3002;42.642;24.812;2023-05-14T04:59:42;13.83;;;3.83;;
5953;SDS011;3002;42.642;24.812;2023-05-14T05:02:07;10.40;;;3.50;;
5953;SDS011;3002;42.642;24.812;2023-05-14T05:04:33;9.83;;;3.00;;
5953;SDS011;3002;42.642;24.812;2023-05-14T05:06:58;10.00;;;4.40;;
5953;SDS011;3002;42.642;24.812;2023-05-14T05:09:24;8.80;;;2.53;;
5953;SDS011;3002;42.642;24.812;2023-05-14T05:11:49;8.70;;;2.20;;
5953;SDS011;3002;42.642;24.812;2023-05-14T05:14:15;9.83;;;3.00;;
5953;SDS011;3002;42.642;24.812;2023-05-14T05:16:40;8.20;;;2.60;;
5953;SDS011;3002;42.642;24.812;2023-05-14T05:19:06;7.23;;;2.30;;
5953;SDS011;3002;42.642;24.812;2023-05-14T05:21:31;10.40;;;3.17;;
5953;SDS011;3002;42.642;24.812;2023-05-14T05:23:57;8.00;;;2.70;;
5953;SDS011;3002;42.642;24.812;2023-05-14T05:26:23;19.23;;;5.00;;
5953;SDS011;3002;42.642;24.812;2023-05-14T05:28:50;6.43;;;2.40;;
5953;SDS011;3002;42.642;24.812;2023-05-14T05:31:16;8.13;;;2.13;;
5953;SDS011;3002;42.642;24.812;2023-05-14T05:33:42;7.17;;;2.53;;
5953;SDS011;3002;42.642;24.812;2023-05-14T05:36:07;8.60;;;2.40;;
5953;SDS011;3002;42.642;24.812;2023-05-14T05:38:33;8.27;;;2.63;;
5953;SDS011;3002;42.642;24.812;2023-05-14T05:40:58;13.40;;;4.00;;
5953;SDS011;3002;42.642;24.812;2023-05-14T05:43:24;10.20;;;3.13;;
5953;SDS011;3002;42.642;24.812;2023-05-14T05:45:49;10.00;;;2.63;;
5953;SDS011;3002;42.642;24.812;2023-05-14T05:48:15;14.20;;;4.30;;
5953;SDS011;3002;42.642;24.812;2023-05-14T05:50:45;9.20;;;3.20;;
5953;SDS011;3002;42.642;24.812;2023-05-14T05:53:13;11.03;;;3.47;;
5953;SDS011;3002;42.642;24.812;2023-05-14T05:55:40;9.70;;;3.50;;
5953;SDS011;3002;42.642;24.812;2023-05-14T05:58:06;8.23;;;2.10;;
5953;SDS011;3002;42.642;24.812;2023-05-14T06:00:32;7.93;;;2.90;;
5953;SDS011;3002;42.642;24.812;2023-05-14T06:02:58;8.20;;;2.97;;
5953;SDS011;3002;42.642;24.812;2023-05-14T06:05:23;6.70;;;2.20;;
5953;SDS011;3002;42.642;24.812;2023-05-14T06:07:49;10.97;;;3.90;;
5953;SDS011;3002;42.642;24.812;2023-05-14T06:10:14;8.70;;;2.83;;
5953;SDS011;3002;42.642;24.812;2023-05-14T06:12:40;8.80;;;2.93;;
5953;SDS011;3002;42.642;24.812;2023-05-14T06:15:05;6.60;;;2.50;;
5953;SDS011;3002;42.642;24.812;2023-05-14T06:17:31;8.37;;;2.87;;
5953;SDS011;3002;42.642;24.812;2023-05-14T06:19:57;9.80;;;2.97;;
5953;SDS011;3002;42.642;24.812;2023-05-14T06:22:22;13.03;;;2.80;;
5953;SDS011;3002;42.642;24.812;2023-05-14T06:24:47;6.93;;;2.23;;
5953;SDS011;3002;42.642;24.812;2023-05-14T06:27:13;7.23;;;2.37;;
5953;SDS011;3002;42.642;24.812;2023-05-14T06:29:38;6.83;;;2.30;;
5953;SDS011;3002;42.642;24.812;2023-05-14T06:32:04;16.60;;;3.53;;
5953;SDS011;3002;42.642;24.812;2023-05-14T06:34:30;6.60;;;2.70;;
5953;SDS011;3002;42.642;24.812;2023-05-14T06:36:55;10.30;;;4.00;;
5953;SDS011;3002;42.642;24.812;2023-05-14T06:39:21;9.97;;;4.27;;
5953;SDS011;3002;42.642;24.812;2023-05-14T06:41:48;13.47;;;4.67;;
5953;SDS011;3002;42.642;24.812;2023-05-14T06:44:15;13.53;;;5.00;;
5953;SDS011;3002;42.642;24.812;2023-05-14T06:46:41;11.57;;;3.20;;
5953;SDS011;3002;42.642;24.812;2023-05-14T06:49:06;11.00;;;3.23;;
5953;SDS011;3002;42.642;24.812;2023-05-14T06:51:32;7.93;;;3.13;;
5953;SDS011;3002;42.642;24.812;2023-05-14T06:53:57;11.57;;;3.90;;
5953;SDS011;3002;42.642;24.812;2023-05-14T06:56:23;11.17;;;3.33;;
5953;SDS011;3002;42.642;24.812;2023-05-14T06:58:48;10.70;;;3.20;;
5953;SDS011;3002;42.642;24.812;2023-05-14T07:01:14;15.10;;;3.00;;
5953;SDS011;3002;42.642;24.812;2023-05-14T07:03:44;15.97;;;5.73;;
5953;SDS011;3002;42.642;24.812;2023-05-14T07:06:13;11.70;;;3.57;;
5953;SDS011;3002;42.642;24.812;2023-05-14T07:08:38;11.23;;;3.90;;
5953;SDS011;3002;42.642;24.812;2023-05-14T07:11:05;8.73;;;3.20;;
5953;SDS011;3002;42.642;24.812;2023-05-14T07:13:31;9.47;;;3.00;;
5953;SDS011;3002;42.642;24.812;2023-05-14T07:15:56;8.70;;;3.50;;
5953;SDS011;3002;42.642;24.812;2023-05-14T07:18:22;8.57;;;2.80;;
5953;SDS011;3002;42.642;24.812;2023-05-14T07:20:48;6.67;;;2.73;;
5953;SDS011;3002;42.642;24.812;2023-05-14T07:23:13;6.80;;;2.50;;
5953;SDS011;3002;42.642;24.812;2023-05-14T07:25:39;6.80;;;2.20;;
5953;SDS011;3002;42.642;24.812;2023-05-14T07:28:05;12.53;;;2.43;;
5953;SDS011;3002;42.642;24.812;2023-05-14T07:30:31;8.47;;;2.20;;
5953;SDS011;3002;42.642;24.812;2023-05-14T07:32:56;8.40;;;2.67;;
5953;SDS011;3002;42.642;24.812;2023-05-14T07:35:22;8.20;;;2.53;;
5953;SDS011;3002;42.642;24.812;2023-05-14T07:37:47;4.57;;;1.70;;
5953;SDS011;3002;42.642;24.812;2023-05-14T07:40:13;10.20;;;3.20;;
5953;SDS011;3002;42.642;24.812;2023-05-14T07:42:39;9.47;;;3.40;;
5953;SDS011;3002;42.642;24.812;2023-05-14T07:45:04;9.20;;;3.13;;
5953;SDS011;3002;42.642;24.812;2023-05-14T07:47:30;11.30;;;2.70;;
5953;SDS011;3002;42.642;24.812;2023-05-14T07:49:56;10.03;;;2.83;;
5953;SDS011;3002;42.642;24.812;2023-05-14T07:52:22;10.20;;;3.33;;
5953;SDS011;3002;42.642;24.812;2023-05-14T07:54:49;13.53;;;3.33;;
5953;SDS011;3002;42.642;24.812;2023-05-14T07:57:15;10.63;;;3.93;;
5953;SDS011;3002;42.642;24.812;2023-05-14T07:59:41;8.00;;;2.80;;
5953;SDS011;3002;42.642;24.812;2023-05-14T08:02:07;11.30;;;4.00;;
5953;SDS011;3002;42.642;24.812;2023-05-14T08:04:35;12.80;;;4.27;;
5953;SDS011;3002;42.642;24.812;2023-05-14T08:07:00;13.73;;;4.63;;
5953;SDS011;3002;42.642;24.812;2023-05-14T08:09:26;11.33;;;4.17;;
5953;SDS011;3002;42.642;24.812;2023-05-14T08:11:51;11.00;;;3.80;;
5953;SDS011;3002;42.642;24.812;2023-05-14T08:14:17;7.60;;;3.27;;
5953;SDS011;3002;42.642;24.812;2023-05-14T08:16:42;10.23;;;3.10;;
5953;SDS011;3002;42.642;24.812;2023-05-14T08:19:08;16.03;;;4.97;;
5953;SDS011;3002;42.642;24.812;2023-05-14T08:21:33;14.73;;;5.13;;
5953;SDS011;3002;42.642;24.812;2023-05-14T08:23:58;8.80;;;3.13;;
5953;SDS011;3002;42.642;24.812;2023-05-14T08:26:24;12.13;;;3.33;;
5953;SDS011;3002;42.642;24.812;2023-05-14T08:28:50;10.47;;;3.20;;
5953;SDS011;3002;42.642;24.812;2023-05-14T08:31:16;14.60;;;3.80;;
5953;SDS011;3002;42.642;24.812;2023-05-14T08:33:42;12.63;;;4.83;;
5953;SDS011;3002;42.642;24.812;2023-05-14T08:36:07;7.70;;;2.60;;
5953;SDS011;3002;42.642;24.812;2023-05-14T08:38:33;11.10;;;3.43;;
5953;SDS011;3002;42.642;24.812;2023-05-14T08:40:59;8.73;;;3.13;;
5953;SDS011;3002;42.642;24.812;2023-05-14T08:43:27;5.77;;;2.50;;
5953;SDS011;3002;42.642;24.812;2023-05-14T08:46:01;11.53;;;3.67;;
5953;SDS011;3002;42.642;24.812;2023-05-14T08:48:31;12.73;;;3.77;;
5953;SDS011;3002;42.642;24.812;2023-05-14T08:50:58;9.70;;;3.50;;
5953;SDS011;3002;42.642;24.812;2023-05-14T08:53:41;25.33;;;3.57;;
5953;SDS011;3002;42.642;24.812;2023-05-14T08:56:08;12.70;;;4.90;;
5953;SDS011;3002;42.642;24.812;2023-05-14T08:58:34;10.87;;;3.87;;
5953;SDS011;3002;42.642;24.812;2023-05-14T09:01:00;9.50;;;4.23;;
5953;SDS011;3002;42.642;24.812;2023-05-14T09:03:25;10.07;;;4.30;;
5953;SDS011;3002;42.642;24.812;2023-05-14T09:05:51;8.87;;;4.40;;
5953;SDS011;3002;42.642;24.812;2023-05-14T09:08:18;8.73;;;3.83;;
5953;SDS011;3002;42.642;24.812;2023-05-14T09:10:43;12.00;;;4.73;;
5953;SDS011;3002;42.642;24.812;2023-05-14T09:13:10;15.77;;;5.77;;
5953;SDS011;3002;42.642;24.812;2023-05-14T09:15:35;20.73;;;6.90;;
5953;SDS011;3002;42.642;24.812;2023-05-14T09:18:05;11.60;;;3.30;;
5953;SDS011;3002;42.642;24.812;2023-05-14T09:20:31;7.37;;;3.03;;
5953;SDS011;3002;42.642;24.812;2023-05-14T09:22:57;16.47;;;3.80;;
5953;SDS011;3002;42.642;24.812;2023-05-14T09:25:26;18.83;;;6.87;;
5953;SDS011;3002;42.642;24.812;2023-05-14T09:27:56;14.50;;;5.87;;
5953;SDS011;3002;42.642;24.812;2023-05-14T09:30:22;9.07;;;3.87;;
5953;SDS011;3002;42.642;24.812;2023-05-14T09:32:48;16.00;;;6.13;;
5953;SDS011;3002;42.642;24.812;2023-05-14T09:35:18;16.27;;;7.00;;
5953;SDS011;3002;42.642;24.812;2023-05-14T09:37:45;22.83;;;9.43;;
5953;SDS011;3002;42.642;24.812;2023-05-14T09:40:15;16.40;;;5.57;;
5953;SDS011;3002;42.642;24.812;2023-05-14T09:42:42;8.87;;;3.60;;
5953;SDS011;3002;42.642;24.812;2023-05-14T09:45:07;10.40;;;3.60;;
5953;SDS011;3002;42.642;24.812;2023-05-14T09:47:34;13.40;;;4.23;;
5953;SDS011;3002;42.642;24.812;2023-05-14T09:50:01;11.30;;;4.30;;
5953;SDS011;3002;42.642;24.812;2023-05-14T09:52:27;11.37;;;4.60;;
5953;SDS011;3002;42.642;24.812;2023-05-14T09:54:52;12.00;;;4.90;;
5953;SDS011;3002;42.642;24.812;2023-05-14T09:57:18;10.17;;;3.80;;
5953;SDS011;3002;42.642;24.812;2023-05-14T09:59:44;10.33;;;4.80;;
5953;SDS011;3002;42.642;24.812;2023-05-14T10:05:03;104.77;;;27.07;;
5953;SDS011;3002;42.642;24.812;2023-05-14T10:07:32;82.57;;;23.80;;
5953;SDS011;3002;42.642;24.812;2023-05-14T10:10:09;44.67;;;16.40;;
5953;SDS011;3002;42.642;24.812;2023-05-14T10:12:43;43.60;;;15.23;;
5953;SDS011;3002;42.642;24.812;2023-05-14T10:15:20;46.77;;;21.90;;
5953;SDS011;3002;42.642;24.812;2023-05-14T10:17:54;35.93;;;12.33;;
5953;SDS011;3002;42.642;24.812;2023-05-14T10:20:22;13.97;;;4.73;;
5953;SDS011;3002;42.642;24.812;2023-05-14T10:22:51;16.80;;;7.00;;
5953;SDS011;3002;42.642;24.812;2023-05-14T10:25:16;11.50;;;4.70;;
5953;SDS011;3002;42.642;24.812;2023-05-14T10:27:42;9.23;;;3.33;;
5953;SDS011;3002;42.642;24.812;2023-05-14T10:30:11;9.77;;;3.90;;
5953;SDS011;3002;42.642;24.812;2023-05-14T10:32:37;34.63;;;6.43;;
5953;SDS011;3002;42.642;24.812;2023-05-14T10:35:13;13.90;;;6.13;;
5953;SDS011;3002;42.642;24.812;2023-05-14T10:37:41;28.33;;;9.00;;
5953;SDS011;3002;42.642;24.812;2023-05-14T10:40:10;35.73;;;13.73;;
5953;SDS011;3002;42.642;24.812;2023-05-14T10:42:37;24.63;;;6.40;;
5953;SDS011;3002;42.642;24.812;2023-05-14T10:45:08;10.97;;;3.47;;
5953;SDS011;3002;42.642;24.812;2023-05-14T10:47:36;14.07;;;4.60;;
5953;SDS011;3002;42.642;24.812;2023-05-14T10:50:03;11.27;;;4.90;;
5953;SDS011;3002;42.642;24.812;2023-05-14T10:52:31;11.47;;;4.20;;
5953;SDS011;3002;42.642;24.812;2023-05-14T10:54:58;10.07;;;4.67;;
5953;SDS011;3002;42.642;24.812;2023-05-14T10:57:26;17.73;;;7.37;;
5953;SDS011;3002;42.642;24.812;2023-05-14T10:59:57;40.67;;;13.97;;
5953;SDS011;3002;42.642;24.812;2023-05-14T11:02:32;9.43;;;5.00;;
5953;SDS011;3002;42.642;24.812;2023-05-14T11:05:00;7.60;;;3.10;;
5953;SDS011;3002;42.642;24.812;2023-05-14T11:07:32;26.83;;;8.93;;
5953;SDS011;3002;42.642;24.812;2023-05-14T11:10:00;13.50;;;6.90;;
5953;SDS011;3002;42.642;24.812;2023-05-14T11:12:30;11.17;;;3.60;;
5953;SDS011;3002;42.642;24.812;2023-05-14T11:14:58;9.47;;;4.80;;
5953;SDS011;3002;42.642;24.812;2023-05-14T11:17:28;16.93;;;6.10;;
5953;SDS011;3002;42.642;24.812;2023-05-14T11:19:54;19.90;;;9.07;;
5953;SDS011;3002;42.642;24.812;2023-05-14T11:22:20;9.67;;;4.23;;
5953;SDS011;3002;42.642;24.812;2023-05-14T11:24:46;16.63;;;6.90;;
5953;SDS011;3002;42.642;24.812;2023-05-14T11:27:12;20.03;;;9.40;;
5953;SDS011;3002;42.642;24.812;2023-05-14T11:29:38;11.37;;;4.80;;
5953;SDS011;3002;42.642;24.812;2023-05-14T11:32:07;15.60;;;5.80;;
5953;SDS011;3002;42.642;24.812;2023-05-14T11:34:32;11.60;;;4.60;;
5953;SDS011;3002;42.642;24.812;2023-05-14T11:37:04;17.40;;;8.10;;
5953;SDS011;3002;42.642;24.812;2023-05-14T11:39:31;17.30;;;5.87;;
5953;SDS011;3002;42.642;24.812;2023-05-14T11:41:57;9.43;;;4.27;;
5953;SDS011;3002;42.642;24.812;2023-05-14T11:44:23;10.20;;;5.03;;
5953;SDS011;3002;42.642;24.812;2023-05-14T11:46:55;13.17;;;5.10;;
5953;SDS011;3002;42.642;24.812;2023-05-14T11:49:22;17.27;;;8.77;;
5953;SDS011;3002;42.642;24.812;2023-05-14T11:51:48;11.00;;;4.73;;
5953;SDS011;3002;42.642;24.812;2023-05-14T11:54:14;12.60;;;5.00;;
5953;SDS011;3002;42.642;24.812;2023-05-14T11:56:40;9.60;;;4.40;;
5953;SDS011;3002;42.642;24.812;2023-05-14T11:59:05;25.10;;;14.10;;
5953;SDS011;3002;42.642;24.812;2023-05-14T12:01:38;11.73;;;5.37;;
5953;SDS011;3002;42.642;24.812;2023-05-14T12:04:03;11.50;;;5.33;;
5953;SDS011;3002;42.642;24.812;2023-05-14T12:06:30;15.67;;;5.90;;
5953;SDS011;3002;42.642;24.812;2023-05-14T12:08:56;12.70;;;5.10;;
5953;SDS011;3002;42.642;24.812;2023-05-14T12:11:21;15.53;;;6.80;;
5953;SDS011;3002;42.642;24.812;2023-05-14T12:13:47;14.00;;;5.63;;
5953;SDS011;3002;42.642;24.812;2023-05-14T12:16:12;10.10;;;4.57;;
5953;SDS011;3002;42.642;24.812;2023-05-14T12:18:38;8.00;;;4.73;;
5953;SDS011;3002;42.642;24.812;2023-05-14T12:21:04;6.03;;;3.40;;
5953;SDS011;3002;42.642;24.812;2023-05-14T12:23:32;10.40;;;4.37;;
5953;SDS011;3002;42.642;24.812;2023-05-14T12:26:01;11.30;;;4.03;;
5953;SDS011;3002;42.642;24.812;2023-05-14T12:28:31;15.20;;;4.00;;
5953;SDS011;3002;42.642;24.812;2023-05-14T12:30:57;13.63;;;4.50;;
5953;SDS011;3002;42.642;24.812;2023-05-14T12:33:23;12.67;;;4.60;;
5953;SDS011;3002;42.642;24.812;2023-05-14T12:35:51;37.50;;;13.30;;
5953;SDS011;3002;42.642;24.812;2023-05-14T12:38:18;14.13;;;6.20;;
5953;SDS011;3002;42.642;24.812;2023-05-14T12:40:43;10.13;;;4.27;;
5953;SDS011;3002;42.642;24.812;2023-05-14T12:43:09;11.30;;;4.50;;
5953;SDS011;3002;42.642;24.812;2023-05-14T12:45:34;7.27;;;3.50;;
5953;SDS011;3002;42.642;24.812;2023-05-14T12:48:00;14.20;;;4.20;;
5953;SDS011;3002;42.642;24.812;2023-05-14T12:50:25;9.37;;;3.60;;
5953;SDS011;3002;42.642;24.812;2023-05-14T12:52:51;12.53;;;3.90;;
5953;SDS011;3002;42.642;24.812;2023-05-14T12:55:16;9.20;;;3.57;;
5953;SDS011;3002;42.642;24.812;2023-05-14T12:57:41;9.33;;;4.90;;
5953;SDS011;3002;42.642;24.812;2023-05-14T13:00:07;14.53;;;5.20;;
5953;SDS011;3002;42.642;24.812;2023-05-14T13:02:36;7.13;;;3.60;;
5953;SDS011;3002;42.642;24.812;2023-05-14T13:05:01;11.80;;;4.13;;
5953;SDS011;3002;42.642;24.812;2023-05-14T13:07:27;7.10;;;3.90;;
5953;SDS011;3002;42.642;24.812;2023-05-14T13:09:56;18.20;;;5.60;;
5953;SDS011;3002;42.642;24.812;2023-05-14T13:12:22;8.77;;;4.00;;
5953;SDS011;3002;42.642;24.812;2023-05-14T13:14:48;16.10;;;4.80;;
5953;SDS011;3002;42.642;24.812;2023-05-14T13:17:14;8.70;;;4.20;;
5953;SDS011;3002;42.642;24.812;2023-05-14T13:19:39;12.50;;;6.60;;
5953;SDS011;3002;42.642;24.812;2023-05-14T13:22:05;10.40;;;4.27;;
5953;SDS011;3002;42.642;24.812;2023-05-14T13:24:30;8.70;;;3.80;;
5953;SDS011;3002;42.642;24.812;2023-05-14T13:26:56;11.43;;;5.47;;
5953;SDS011;3002;42.642;24.812;2023-05-14T13:29:21;11.83;;;5.10;;
5953;SDS011;3002;42.642;24.812;2023-05-14T13:31:46;13.13;;;5.37;;
5953;SDS011;3002;42.642;24.812;2023-05-14T13:34:12;11.73;;;5.67;;
5953;SDS011;3002;42.642;24.812;2023-05-14T13:36:37;13.13;;;6.17;;
5953;SDS011;3002;42.642;24.812;2023-05-14T13:39:06;15.07;;;5.90;;
5953;SDS011;3002;42.642;24.812;2023-05-14T13:41:32;10.03;;;4.73;;
5953;SDS011;3002;42.642;24.812;2023-05-14T13:44:01;10.10;;;5.13;;
5953;SDS011;3002;42.642;24.812;2023-05-14T13:46:27;14.60;;;5.77;;
5953;SDS011;3002;42.642;24.812;2023-05-14T13:48:53;9.50;;;4.83;;
5953;SDS011;3002;42.642;24.812;2023-05-14T13:51:18;17.03;;;6.50;;
5953;SDS011;3002;42.642;24.812;2023-05-14T13:53:44;11.17;;;5.87;;
5953;SDS011;3002;42.642;24.812;2023-05-14T13:56:09;12.33;;;5.13;;
5953;SDS011;3002;42.642;24.812;2023-05-14T13:58:35;15.87;;;6.40;;
5953;SDS011;3002;42.642;24.812;2023-05-14T14:01:00;15.53;;;7.80;;
5953;SDS011;3002;42.642;24.812;2023-05-14T14:03:26;15.70;;;6.70;;
5953;SDS011;3002;42.642;24.812;2023-05-14T14:05:51;44.07;;;18.27;;
5953;SDS011;3002;42.642;24.812;2023-05-14T14:08:17;14.17;;;6.57;;
5953;SDS011;3002;42.642;24.812;2023-05-14T14:10:43;14.53;;;6.83;;
5953;SDS011;3002;42.642;24.812;2023-05-14T14:13:09;14.00;;;6.17;;
5953;SDS011;3002;42.642;24.812;2023-05-14T14:15:35;21.40;;;9.03;;
5953;SDS011;3002;42.642;24.812;2023-05-14T14:18:01;18.90;;;9.23;;
5953;SDS011;3002;42.642;24.812;2023-05-14T14:20:27;22.03;;;8.93;;
5953;SDS011;3002;42.642;24.812;2023-05-14T14:23:03;32.27;;;9.03;;
5953;SDS011;3002;42.642;24.812;2023-05-14T14:25:31;33.93;;;19.00;;
5953;SDS011;3002;42.642;24.812;2023-05-14T14:27:57;25.30;;;8.50;;
5953;SDS011;3002;42.642;24.812;2023-05-14T14:30:22;17.90;;;7.90;;
5953;SDS011;3002;42.642;24.812;2023-05-14T14:32:48;16.10;;;6.27;;
5953;SDS011;3002;42.642;24.812;2023-05-14T14:35:14;16.33;;;6.90;;
5953;SDS011;3002;42.642;24.812;2023-05-14T14:37:41;19.20;;;8.30;;
5953;SDS011;3002;42.642;24.812;2023-05-14T14:40:09;14.97;;;6.43;;
5953;SDS011;3002;42.642;24.812;2023-05-14T14:42:35;11.33;;;5.37;;
5953;SDS011;3002;42.642;24.812;2023-05-14T14:45:02;13.33;;;6.33;;
5953;SDS011;3002;42.642;24.812;2023-05-14T14:47:28;12.40;;;5.40;;
5953;SDS011;3002;42.642;24.812;2023-05-14T14:49:54;16.77;;;6.27;;
5953;SDS011;3002;42.642;24.812;2023-05-14T14:52:21;11.10;;;4.90;;
5953;SDS011;3002;42.642;24.812;2023-05-14T14:54:47;18.67;;;8.97;;
5953;SDS011;3002;42.642;24.812;2023-05-14T14:57:12;16.30;;;7.17;;